Overview Statistics Trail Chart Weather Telemetry Raw packets
 

This is the latest recevied weather packets stored in our database for station/object WA5TET. If no packets are shown the sender has not sent any weather packets the latest 10 day(s).

<< 10 11 12 13 14 15 16 >>
Time Temp. Humidity Pressure Rain* Wind** Luminosity Snow
1788540676 33.89° C 50% 1013.7 hPa 0 mm - 826 W/m² -
1788540370 33.33° C 50% 1014 hPa 0 mm - 933 W/m² -
1788540066 33.33° C 52% 1013.9 hPa 0 mm - 911 W/m² -
1788539778 33.33° C 52% 1014 hPa 0 mm - 610 W/m² -
1788539456 33.33° C 52% 1013.9 hPa 0 mm - 819 W/m² -
1788539150 32.78° C 55% 1014 hPa 0 mm - 803 W/m² -
1788538846 32.78° C 54% 1013.9 hPa 0 mm - 753 W/m² -
1788538546 32.78° C 55% 1013.9 hPa 0 mm - 794 W/m² -
1788538241 32.78° C 55% 1013.8 hPa 0 mm - 775 W/m² -
1788537936 32.22° C 58% 1013.9 hPa 0 mm - 760 W/m² -
1788537633 32.22° C 58% 1013.9 hPa 0 mm - 740 W/m² -
1788537332 32.22° C 58% 1013.9 hPa 0 mm - 729 W/m² -
1788537032 32.22° C 58% 1013.8 hPa 0 mm - 703 W/m² -
1788536746 32.22° C 58% 1013.8 hPa 0 mm - 684 W/m² -
1788536421 31.11° C 63% 1013.8 hPa 0 mm - 691 W/m² -
1788536120 30.56° C 64% 1013.9 hPa 0 mm - 656 W/m² -
1788535817 30.56° C 64% 1013.9 hPa 0 mm - 628 W/m² -
1788535513 30.56° C 66% 1013.8 hPa 0 mm - 632 W/m² -
1788535222 30° C 68% 1013.7 hPa 0 mm - 618 W/m² -
1788534903 30° C 68% 1013.8 hPa 0 mm - 613 W/m² -
1788534603 30.56° C 68% 1013.8 hPa 0 mm - 592 W/m² -
1788534297 30° C 70% 1013.5 hPa 0 mm - 553 W/m² -
1788533996 30° C 71% 1013.7 hPa 0 mm - 549 W/m² -
1788533692 30° C 71% 1013.7 hPa 0 mm - 457 W/m² -
1788533387 29.44° C 73% 1013.7 hPa 0 mm - 508 W/m² -

* Rain latest hour (hover to see other rain measurements)
** Current wind speed in m/s (hover to see current wind gust speed)